Wetterstation Vordersexau
Wetterdaten: Woche 30.07.12 - 05.08.12 (KW31)
Datum Zeit Temp. A. Feuchte A. Luftdruck Regen Wind Richtung Taupunkt Windchill Windben
30.07.2012 00:00 13,0 C 83 % 1016,2 hPa 0,0 l/m 0,0 km/h O-NO 10,2 C 13,0 C 0,0 km/h
30.07.2012 01:00 12,5 C 83 % 1016,1 hPa 0,0 l/m 0,0 km/h O-SO 9,7 C 12,5 C 0,0 km/h
30.07.2012 02:00 12,1 C 82 % 1016,0 hPa 0,0 l/m 0,0 km/h SO 9,1 C 12,1 C 0,0 km/h
30.07.2012 03:00 11,4 C 82 % 1016,0 hPa 0,0 l/m 0,0 km/h SO 8,4 C 11,4 C 0,0 km/h
30.07.2012 04:00 11,1 C 81 % 1016,4 hPa 0,0 l/m 0,0 km/h O-SO 8,0 C 11,1 C 0,0 km/h
30.07.2012 05:00 10,8 C 80 % 1016,2 hPa 0,0 l/m 0,0 km/h NO 7,5 C 10,8 C 0,0 km/h
30.07.2012 06:00 10,9 C 79 % 1016,7 hPa 0,0 l/m 0,0 km/h SO 7,4 C 10,9 C 0,0 km/h
30.07.2012 07:00 12,1 C 76 % 1017,2 hPa 0,0 l/m 0,0 km/h SO 8,0 C 12,1 C 0,0 km/h
30.07.2012 08:00 17,7 C 82 % 1017,6 hPa 0,0 l/m 0,0 km/h W 14,6 C 17,7 C 0,0 km/h
30.07.2012 09:00 23,4 C 63 % 1017,5 hPa 0,0 l/m 3,2 km/h SW 15,9 C 23,4 C 1,8 km/h
30.07.2012 10:00 22,9 C 55 % 1017,6 hPa 0,0 l/m 22,0 km/h W 13,4 C 19,7 C 12,2 km/h
30.07.2012 11:00 24,1 C 53 % 1017,8 hPa 0,0 l/m 2,6 km/h W-NW 13,9 C 24,1 C 1,4 km/h
30.07.2012 12:00 24,1 C 53 % 1017,5 hPa 0,0 l/m 23,3 km/h W-SW 13,9 C 21,1 C 13,0 km/h
30.07.2012 13:00 24,4 C 49 % 1017,1 hPa 0,0 l/m 22,0 km/h W 13,0 C 21,7 C 12,2 km/h
30.07.2012 14:00 24,9 C 48 % 1016,7 hPa 0,0 l/m 10,4 km/h N-NW 13,1 C 24,0 C 5,8 km/h
30.07.2012 15:00 25,8 C 44 % 1016,5 hPa 0,0 l/m 7,1 km/h SW 12,6 C 25,6 C 4,0 km/h
30.07.2012 16:00 27,3 C 39 % 1016,3 hPa 0,0 l/m 18,1 km/h W-NW 12,1 C 25,8 C 10,1 km/h
30.07.2012 17:00 26,5 C 42 % 1016,4 hPa 0,0 l/m 5,8 km/h N-NO 12,5 C 26,5 C 3,2 km/h
30.07.2012 18:00 27,5 C 44 % 1016,4 hPa 0,0 l/m 7,8 km/h N-NO 14,1 C 27,3 C 4,3 km/h
30.07.2012 19:00 23,5 C 50 % 1016,6 hPa 0,0 l/m 0,0 km/h O-NO 12,5 C 23,5 C 0,0 km/h
30.07.2012 20:00 20,3 C 61 % 1016,6 hPa 0,0 l/m 0,0 km/h NO 12,5 C 20,3 C 0,0 km/h
30.07.2012 21:00 16,9 C 71 % 1016,7 hPa 0,0 l/m 0,0 km/h O-SO 11,6 C 16,9 C 0,0 km/h
30.07.2012 22:00 14,6 C 79 % 1016,9 hPa 0,0 l/m 0,0 km/h S-SO 11,0 C 14,6 C 0,0 km/h
30.07.2012 23:00 13,5 C 82 % 1017,4 hPa 0,0 l/m 0,0 km/h S-SO 10,5 C 13,5 C 0,0 km/h
31.07.2012 00:00 12,3 C 82 % 1017,3 hPa 0,0 l/m 0,0 km/h O-NO 9,3 C 12,3 C 0,0 km/h
31.07.2012 01:00 11,7 C 83 % 1017,4 hPa 0,0 l/m 0,0 km/h O 8,9 C 11,7 C 0,0 km/h
31.07.2012 02:00 11,9 C 83 % 1017,2 hPa 0,0 l/m 0,0 km/h O-NO 9,1 C 11,9 C 0,0 km/h
31.07.2012 03:00 11,6 C 82 % 1017,2 hPa 0,0 l/m 0,0 km/h O 8,6 C 11,6 C 0,0 km/h
31.07.2012 04:00 11,4 C 82 % 1017,1 hPa 0,0 l/m 0,0 km/h SO 8,4 C 11,4 C 0,0 km/h
31.07.2012 05:00 11,5 C 81 % 1017,0 hPa 0,0 l/m 0,0 km/h O-SO 8,4 C 11,5 C 0,0 km/h
31.07.2012 06:00 12,4 C 80 % 1017,1 hPa 0,0 l/m 0,0 km/h O-SO 9,0 C 12,4 C 0,0 km/h
31.07.2012 07:00 13,6 C 80 % 1017,4 hPa 0,0 l/m 0,0 km/h SO 10,2 C 13,6 C 0,0 km/h
31.07.2012 08:00 15,9 C 83 % 1017,8 hPa 0,0 l/m 0,0 km/h SO 13,0 C 15,9 C 0,0 km/h
31.07.2012 09:00 20,7 C 75 % 1017,4 hPa 0,0 l/m 9,7 km/h W-SW 16,1 C 19,5 C 5,4 km/h
31.07.2012 10:00 24,9 C 56 % 1017,7 hPa 0,0 l/m 7,1 km/h W-SW 15,5 C 24,7 C 4,0 km/h
31.07.2012 11:00 27,8 C 50 % 1017,5 hPa 0,0 l/m 5,8 km/h S-SO 16,4 C 27,8 C 3,2 km/h
31.07.2012 12:00 26,4 C 51 % 1017,4 hPa 0,0 l/m 10,4 km/h W 15,4 C 25,6 C 5,8 km/h
31.07.2012 13:00 28,3 C 47 % 1017,2 hPa 0,0 l/m 0,0 km/h S-SW 15,9 C 28,3 C 0,0 km/h
31.07.2012 14:00 26,4 C 50 % 1017,0 hPa 0,0 l/m 18,8 km/h NW 15,1 C 24,6 C 10,4 km/h
31.07.2012 15:00 27,6 C 48 % 1016,6 hPa 0,0 l/m 2,6 km/h W-SW 15,6 C 27,6 C 1,4 km/h
31.07.2012 16:00 31,1 C 43 % 1016,3 hPa 0,0 l/m 0,0 km/h W-SW 17,0 C 31,1 C 0,0 km/h
31.07.2012 17:00 33,8 C 35 % 1016,0 hPa 0,0 l/m 0,0 km/h N-NW 16,2 C 33,8 C 0,0 km/h
31.07.2012 18:00 33,9 C 32 % 1015,6 hPa 0,0 l/m 0,0 km/h W 14,8 C 33,9 C 0,0 km/h
31.07.2012 19:00 28,8 C 40 % 1015,5 hPa 0,0 l/m 0,0 km/h O-NO 13,8 C 28,8 C 0,0 km/h
31.07.2012 20:00 23,8 C 58 % 1015,4 hPa 0,0 l/m 0,0 km/h O-SO 15,0 C 23,8 C 0,0 km/h
31.07.2012 21:00 18,9 C 70 % 1015,4 hPa 0,0 l/m 0,0 km/h SO 13,3 C 18,9 C 0,0 km/h
31.07.2012 22:00 17,9 C 76 % 1015,8 hPa 0,0 l/m 1,9 km/h O-SO 13,6 C 17,9 C 1,1 km/h
31.07.2012 23:00 16,8 C 79 % 1015,8 hPa 0,0 l/m 0,0 km/h O-SO 13,1 C 16,8 C 0,0 km/h
01.08.2012 00:00 15,8 C 81 % 1015,9 hPa 0,0 l/m 2,6 km/h SO 12,5 C 15,8 C 1,4 km/h
01.08.2012 01:00 15,1 C 82 % 1015,4 hPa 0,0 l/m 0,0 km/h O-NO 12,0 C 15,1 C 0,0 km/h
01.08.2012 02:00 14,1 C 82 % 1015,1 hPa 0,0 l/m 0,0 km/h NO 11,1 C 14,1 C 0,0 km/h
01.08.2012 03:00 13,3 C 83 % 1014,9 hPa 0,0 l/m 0,0 km/h O-SO 10,5 C 13,3 C 0,0 km/h
01.08.2012 04:00 12,6 C 83 % 1014,4 hPa 0,0 l/m 0,0 km/h O-NO 9,8 C 12,6 C 0,0 km/h
01.08.2012 05:00 11,9 C 82 % 1014,4 hPa 0,0 l/m 0,0 km/h O-NO 8,9 C 11,9 C 0,0 km/h
01.08.2012 06:00 12,1 C 81 % 1014,5 hPa 0,0 l/m 0,0 km/h O-SO 8,9 C 12,1 C 0,0 km/h
01.08.2012 07:00 13,4 C 79 % 1014,0 hPa 0,0 l/m 0,0 km/h O-NO 9,8 C 13,4 C 0,0 km/h
01.08.2012 08:00 23,8 C 73 % 1013,7 hPa 0,0 l/m 0,0 km/h N-NO 18,7 C 23,8 C 0,0 km/h
01.08.2012 09:00 25,5 C 56 % 1013,5 hPa 0,0 l/m 0,0 km/h W-SW 16,1 C 25,5 C 0,0 km/h
01.08.2012 10:00 28,6 C 51 % 1013,2 hPa 0,0 l/m 0,0 km/h N-NO 17,4 C 28,6 C 0,0 km/h
01.08.2012 11:00 29,6 C 46 % 1012,8 hPa 0,0 l/m 0,0 km/h W 16,7 C 29,6 C 0,0 km/h
01.08.2012 12:00 29,4 C 50 % 1012,4 hPa 0,0 l/m 0,0 km/h W 17,9 C 29,4 C 0,0 km/h
01.08.2012 13:00 30,7 C 50 % 1011,8 hPa 0,0 l/m 0,0 km/h S 19,1 C 30,7 C 0,0 km/h
01.08.2012 14:00 31,5 C 49 % 1011,1 hPa 0,0 l/m 0,0 km/h W 19,5 C 31,5 C 0,0 km/h
01.08.2012 15:00 34,5 C 44 % 1010,5 hPa 0,0 l/m 0,0 km/h W-SW 20,4 C 34,5 C 0,0 km/h
01.08.2012 16:00 38,1 C 38 % 1009,9 hPa 0,0 l/m 0,0 km/h W-NW 21,2 C 38,1 C 0,0 km/h
01.08.2012 17:00 39,3 C 32 % 1009,3 hPa 0,0 l/m 0,0 km/h W 19,5 C 39,3 C 0,0 km/h
01.08.2012 18:00 36,1 C 33 % 1008,9 hPa 0,0 l/m 0,0 km/h W-NW 17,2 C 36,1 C 0,0 km/h
01.08.2012 19:00 30,4 C 51 % 1008,5 hPa 0,0 l/m 0,0 km/h O-SO 19,1 C 30,4 C 0,0 km/h
01.08.2012 20:00 25,1 C 62 % 1008,4 hPa 0,0 l/m 0,0 km/h O 17,3 C 25,1 C 0,0 km/h
01.08.2012 21:00 22,3 C 70 % 1008,6 hPa 0,0 l/m 0,0 km/h O 16,6 C 22,3 C 0,0 km/h
01.08.2012 22:00 20,5 C 72 % 1008,7 hPa 0,0 l/m 0,0 km/h O-SO 15,3 C 20,5 C 0,0 km/h
01.08.2012 23:00 20,3 C 73 % 1009,6 hPa 0,0 l/m 0,0 km/h O 15,3 C 20,3 C 0,0 km/h
02.08.2012 00:00 20,6 C 76 % 1010,9 hPa 0,0 l/m 0,0 km/h O-NO 16,2 C 20,6 C 0,0 km/h
02.08.2012 01:00 18,5 C 81 % 1011,7 hPa 0,4 l/m 0,0 km/h NO 15,2 C 18,5 C 0,0 km/h
02.08.2012 02:00 18,2 C 82 % 1011,3 hPa 0,0 l/m 0,0 km/h N-NO 15,1 C 18,2 C 0,0 km/h
02.08.2012 03:00 18,6 C 82 % 1012,4 hPa 0,0 l/m 0,0 km/h O 15,5 C 18,6 C 0,0 km/h
02.08.2012 04:00 17,5 C 82 % 1012,0 hPa 0,0 l/m 0,0 km/h NO 14,4 C 17,5 C 0,0 km/h
02.08.2012 05:00 16,9 C 82 % 1012,2 hPa 0,0 l/m 0,0 km/h NO 13,8 C 16,9 C 0,0 km/h
02.08.2012 06:00 16,6 C 81 % 1012,8 hPa 0,0 l/m 0,0 km/h O-NO 13,3 C 16,6 C 0,0 km/h
02.08.2012 07:00 18,5 C 82 % 1012,7 hPa 0,0 l/m 0,0 km/h SO 15,4 C 18,5 C 0,0 km/h
02.08.2012 08:00 23,0 C 75 % 1013,3 hPa 0,0 l/m 0,0 km/h N-NO 18,3 C 23,0 C 0,0 km/h
02.08.2012 09:00 22,9 C 74 % 1013,6 hPa 0,0 l/m 0,0 km/h W-SW 18,0 C 22,9 C 0,0 km/h
02.08.2012 10:00 28,1 C 63 % 1013,7 hPa 0,0 l/m 0,0 km/h W 20,4 C 28,1 C 0,0 km/h
02.08.2012 11:00 28,2 C 54 % 1014,1 hPa 0,0 l/m 12,3 km/h W-SW 18,0 C 27,4 C 6,8 km/h
02.08.2012 12:00 27,5 C 54 % 1014,3 hPa 0,0 l/m 7,1 km/h W-SW 17,3 C 27,4 C 4,0 km/h
02.08.2012 13:00 28,1 C 52 % 1014,2 hPa 0,0 l/m 17,5 km/h W 17,3 C 26,9 C 9,7 km/h
02.08.2012 14:00 28,3 C 52 % 1013,8 hPa 0,0 l/m 22,7 km/h W-NW 17,5 C 26,8 C 12,6 km/h
02.08.2012 15:00 29,3 C 49 % 1014,1 hPa 0,0 l/m 16,8 km/h W-NW 17,5 C 28,4 C 9,4 km/h
02.08.2012 16:00 31,8 C 44 % 1013,9 hPa 0,0 l/m 1,3 km/h W-NW 18,0 C 31,8 C 0,7 km/h
02.08.2012 17:00 30,3 C 43 % 1013,6 hPa 0,0 l/m 1,9 km/h W-NW 16,3 C 30,3 C 1,1 km/h
02.08.2012 18:00 29,5 C 45 % 1013,5 hPa 0,0 l/m 13,0 km/h W-NW 16,3 C 28,9 C 7,2 km/h
02.08.2012 19:00 29,4 C 44 % 1013,4 hPa 0,0 l/m 6,5 km/h N-NO 15,8 C 29,4 C 3,6 km/h
02.08.2012 20:00 23,5 C 63 % 1013,9 hPa 0,0 l/m 0,0 km/h N-NO 16,0 C 23,5 C 0,0 km/h
02.08.2012 21:00 21,5 C 72 % 1014,3 hPa 0,0 l/m 0,0 km/h N-NO 16,2 C 21,5 C 0,0 km/h
02.08.2012 22:00 19,8 C 78 % 1014,7 hPa 0,0 l/m 0,0 km/h O-NO 15,8 C 19,8 C 0,0 km/h
02.08.2012 23:00 17,9 C 80 % 1014,5 hPa 0,0 l/m 0,0 km/h NO 14,4 C 17,9 C 0,0 km/h
03.08.2012 00:00 16,8 C 82 % 1015,1 hPa 0,0 l/m 0,0 km/h NO 13,7 C 16,8 C 0,0 km/h
03.08.2012 01:00 17,3 C 82 % 1015,5 hPa 0,0 l/m 0,0 km/h O-NO 14,2 C 17,3 C 0,0 km/h
03.08.2012 02:00 17,0 C 82 % 1015,5 hPa 0,0 l/m 0,0 km/h O-SO 13,9 C 17,0 C 0,0 km/h
03.08.2012 03:00 16,3 C 83 % 1015,4 hPa 0,0 l/m 0,0 km/h O-SO 13,4 C 16,3 C 0,0 km/h
03.08.2012 04:00 16,4 C 82 % 1015,3 hPa 0,0 l/m 0,0 km/h SO 13,3 C 16,4 C 0,0 km/h
03.08.2012 05:00 16,6 C 82 % 1015,6 hPa 0,0 l/m 0,0 km/h O-NO 13,5 C 16,6 C 0,0 km/h
03.08.2012 06:00 16,3 C 82 % 1015,8 hPa 0,0 l/m 0,0 km/h SO 13,2 C 16,3 C 0,0 km/h
03.08.2012 07:00 17,1 C 82 % 1015,9 hPa 0,0 l/m 0,0 km/h SO 14,0 C 17,1 C 0,0 km/h
03.08.2012 08:00 19,3 C 82 % 1016,2 hPa 0,0 l/m 0,0 km/h SO 16,1 C 19,3 C 0,0 km/h
03.08.2012 09:00 23,9 C 67 % 1016,3 hPa 0,0 l/m 0,0 km/h S-SW 17,4 C 23,9 C 0,0 km/h
03.08.2012 10:00 28,4 C 58 % 1016,1 hPa 0,0 l/m 0,0 km/h W-NW 19,3 C 28,4 C 0,0 km/h
03.08.2012 11:00 30,2 C 45 % 1016,2 hPa 0,0 l/m 18,8 km/h W-NW 16,9 C 29,4 C 10,4 km/h
03.08.2012 12:00 28,1 C 47 % 1015,8 hPa 0,0 l/m 9,1 km/h W 15,7 C 27,7 C 5,0 km/h
03.08.2012 13:00 29,6 C 43 % 1015,4 hPa 0,0 l/m 0,0 km/h W-NW 15,7 C 29,6 C 0,0 km/h
03.08.2012 14:00 29,5 C 39 % 1015,0 hPa 0,0 l/m 19,4 km/h NW 14,1 C 28,5 C 10,8 km/h
03.08.2012 15:00 31,4 C 36 % 1014,6 hPa 0,0 l/m 20,1 km/h W-NW 14,5 C 30,9 C 11,2 km/h
03.08.2012 16:00 31,9 C 39 % 1014,1 hPa 0,0 l/m 5,8 km/h N-NW 16,2 C 31,9 C 3,2 km/h
03.08.2012 17:00 35,7 C 31 % 1014,1 hPa 0,0 l/m 0,0 km/h NW 15,9 C 35,7 C 0,0 km/h
03.08.2012 18:00 32,9 C 34 % 1013,9 hPa 0,0 l/m 0,0 km/h N-NO 14,9 C 32,9 C 0,0 km/h
03.08.2012 19:00 26,4 C 45 % 1014,0 hPa 0,0 l/m 0,0 km/h N-NO 13,5 C 26,4 C 0,0 km/h
03.08.2012 20:00 23,2 C 55 % 1014,1 hPa 0,0 l/m 0,0 km/h O-SO 13,6 C 23,2 C 0,0 km/h
03.08.2012 21:00 21,2 C 66 % 1014,7 hPa 0,0 l/m 0,0 km/h O-SO 14,6 C 21,2 C 0,0 km/h
03.08.2012 22:00 19,3 C 73 % 1015,2 hPa 0,0 l/m 0,0 km/h O-NO 14,3 C 19,3 C 0,0 km/h
03.08.2012 23:00 17,9 C 78 % 1015,3 hPa 0,0 l/m 0,0 km/h O-NO 14,0 C 17,9 C 0,0 km/h
04.08.2012 00:00 16,6 C 80 % 1015,3 hPa 0,0 l/m 0,0 km/h O-NO 13,1 C 16,6 C 0,0 km/h
04.08.2012 01:00 15,4 C 82 % 1015,1 hPa 0,0 l/m 0,0 km/h O-SO 12,3 C 15,4 C 0,0 km/h
04.08.2012 02:00 15,1 C 83 % 1014,9 hPa 0,0 l/m 0,0 km/h O-NO 12,2 C 15,1 C 0,0 km/h
04.08.2012 03:00 14,8 C 83 % 1014,7 hPa 0,0 l/m 0,0 km/h O-NO 11,9 C 14,8 C 0,0 km/h
04.08.2012 04:00 14,8 C 83 % 1014,3 hPa 0,0 l/m 0,0 km/h NO 11,9 C 14,8 C 0,0 km/h
04.08.2012 05:00 14,7 C 83 % 1014,2 hPa 0,0 l/m 0,0 km/h SO 11,8 C 14,7 C 0,0 km/h
04.08.2012 06:00 14,8 C 83 % 1014,3 hPa 0,0 l/m 0,0 km/h O-SO 11,9 C 14,8 C 0,0 km/h
04.08.2012 07:00 15,5 C 83 % 1014,3 hPa 0,0 l/m 0,0 km/h O-NO 12,6 C 15,5 C 0,0 km/h
04.08.2012 08:00 18,4 C 79 % 1014,1 hPa 0,0 l/m 0,0 km/h O-NO 14,7 C 18,4 C 0,0 km/h
04.08.2012 09:00 19,4 C 76 % 1014,1 hPa 0,0 l/m 0,0 km/h W 15,1 C 19,4 C 0,0 km/h
04.08.2012 10:00 21,8 C 68 % 1014,1 hPa 0,0 l/m 0,0 km/h W 15,6 C 21,8 C 0,0 km/h
04.08.2012 11:00 24,9 C 60 % 1014,0 hPa 0,0 l/m 0,0 km/h SW 16,6 C 24,9 C 0,0 km/h
04.08.2012 12:00 27,4 C 50 % 1013,4 hPa 0,0 l/m 0,0 km/h W-NW 16,0 C 27,4 C 0,0 km/h
04.08.2012 13:00 28,9 C 46 % 1013,2 hPa 0,0 l/m 3,2 km/h N 16,1 C 28,9 C 1,8 km/h
04.08.2012 14:00 30,2 C 43 % 1012,7 hPa 0,0 l/m 0,0 km/h N 16,2 C 30,2 C 0,0 km/h
04.08.2012 15:00 33,0 C 39 % 1012,0 hPa 0,0 l/m 0,0 km/h W-NW 17,2 C 33,0 C 0,0 km/h
04.08.2012 16:00 34,2 C 34 % 1011,3 hPa 0,0 l/m 1,3 km/h S 16,1 C 34,2 C 0,7 km/h
04.08.2012 17:00 33,6 C 35 % 1010,9 hPa 0,0 l/m 2,6 km/h N-NW 16,0 C 33,6 C 1,4 km/h
04.08.2012 18:00 35,8 C 29 % 1010,3 hPa 0,0 l/m 5,8 km/h W-SW 14,9 C 35,8 C 3,2 km/h
04.08.2012 19:00 32,9 C 34 % 1010,3 hPa 0,0 l/m 0,0 km/h W-NW 14,9 C 32,9 C 0,0 km/h
04.08.2012 20:00 24,4 C 55 % 1010,0 hPa 0,0 l/m 0,0 km/h SO 14,8 C 24,4 C 0,0 km/h
04.08.2012 21:00 20,6 C 64 % 1009,5 hPa 0,0 l/m 0,0 km/h O 13,5 C 20,6 C 0,0 km/h
04.08.2012 22:00 20,2 C 68 % 1010,0 hPa 0,0 l/m 0,0 km/h SO 14,1 C 20,2 C 0,0 km/h
04.08.2012 23:00 18,8 C 76 % 1010,8 hPa 0,0 l/m 0,0 km/h O-SO 14,5 C 18,8 C 0,0 km/h
05.08.2012 00:00 18,2 C 81 % 1010,5 hPa 0,0 l/m 0,0 km/h O-SO 14,9 C 18,2 C 0,0 km/h
05.08.2012 01:00 17,8 C 82 % 1010,4 hPa 0,4 l/m 0,0 km/h SO 14,7 C 17,8 C 0,0 km/h
05.08.2012 02:00 17,8 C 82 % 1010,4 hPa 0,0 l/m 2,6 km/h SO 14,7 C 17,8 C 1,4 km/h
05.08.2012 03:00 17,4 C 82 % 1011,1 hPa 0,4 l/m 0,0 km/h SO 14,3 C 17,4 C 0,0 km/h
05.08.2012 04:00 17,1 C 81 % 1009,6 hPa 0,4 l/m 0,0 km/h N-NW 13,8 C 17,1 C 0,0 km/h
05.08.2012 05:00 16,8 C 81 % 1009,0 hPa 0,0 l/m 0,0 km/h N-NO 13,5 C 16,8 C 0,0 km/h
05.08.2012 06:00 15,9 C 80 % 1009,2 hPa 0,0 l/m 1,3 km/h O-NO 12,5 C 15,9 C 0,7 km/h
05.08.2012 07:00 16,0 C 79 % 1009,7 hPa 0,0 l/m 0,0 km/h O-SO 12,4 C 16,0 C 0,0 km/h
05.08.2012 08:00 21,6 C 82 % 1009,8 hPa 0,0 l/m 0,0 km/h O-SO 18,4 C 21,6 C 0,0 km/h
05.08.2012 09:00 27,1 C 66 % 1010,0 hPa 0,0 l/m 0,0 km/h W-SW 20,2 C 27,1 C 0,0 km/h
05.08.2012 10:00 25,6 C 60 % 1010,0 hPa 0,0 l/m 1,9 km/h W-NW 17,2 C 25,6 C 1,1 km/h
05.08.2012 11:00 25,7 C 61 % 1010,5 hPa 0,0 l/m 11,7 km/h W-SW 17,6 C 24,6 C 6,5 km/h
05.08.2012 12:00 24,1 C 61 % 1010,2 hPa 0,0 l/m 18,8 km/h S 16,1 C 21,7 C 10,4 km/h
05.08.2012 13:00 25,9 C 59 % 1009,8 hPa 0,0 l/m 16,8 km/h S 17,3 C 24,2 C 9,4 km/h
05.08.2012 14:00 28,9 C 52 % 1009,4 hPa 0,0 l/m 10,4 km/h W 18,0 C 28,4 C 5,8 km/h
05.08.2012 15:00 31,5 C 45 % 1008,8 hPa 0,0 l/m 8,4 km/h W-SW 18,1 C 31,4 C 4,7 km/h
05.08.2012 16:00 29,3 C 48 % 1008,4 hPa 0,0 l/m 5,8 km/h W 17,1 C 29,3 C 3,2 km/h
05.08.2012 17:00 33,7 C 39 % 1007,6 hPa 0,0 l/m 2,6 km/h W-SW 17,8 C 33,7 C 1,4 km/h
05.08.2012 18:00 35,9 C 36 % 1007,0 hPa 0,0 l/m 0,0 km/h N-NO 18,4 C 35,9 C 0,0 km/h
05.08.2012 19:00 33,2 C 38 % 1006,3 hPa 0,0 l/m 0,0 km/h O-NO 16,9 C 33,2 C 0,0 km/h
05.08.2012 20:00 24,9 C 56 % 1005,7 hPa 0,0 l/m 0,0 km/h O 15,5 C 24,9 C 0,0 km/h
05.08.2012 21:00 21,1 C 72 % 1005,4 hPa 0,0 l/m 0,0 km/h O-NO 15,8 C 21,1 C 0,0 km/h
05.08.2012 22:00 19,0 C 80 % 1006,9 hPa 0,7 l/m 0,0 km/h SO 15,5 C 19,0 C 0,0 km/h
05.08.2012 23:00 15,9 C 82 % 1010,8 hPa 2,1 l/m 0,0 km/h O-SO 12,8 C 15,9 C 0,0 km/h
Min-Datum _ 30.07.12 04.08.12 05.08.12 - 30.07.12 - 30.07.12 30.07.12 30.07.12
_ Min-Zeit 05:19 18:19 21:19 - 00:19 - 06:19 05:19 00:19
Minimum _ 10,8 C 29 % 1005,4 hPa - 0,0 km/h - 7,4 C 10,8 C 0,0 km/h
Max-Datum _ 01.08.12 30.07.12 30.07.12 05.08.12 30.07.12 - 01.08.12 01.08.12 30.07.12
_ Max-Zeit 17:19 00:19 11:19 23:19 12:19 - 16:19 17:19 12:19
Maximum _ 39,3 C 83 % 1017,8 hPa 2,1 l/m 23,3 km/h
W-SW
- 21,2 C 39,3 C 13,0 km/h
W-SW
Durchschnitt _ 22,4 C 64 % 1013,7 hPa #4,3 l/m 2,7 km/h O-NO 14,5 C 22,2 C 1,5 km/h
www.sexauwetter.de